• Join FlightAware (Why Join?)
  • Login
  • US Flag 
12:26AM EDT


 

Airport Tracker/Info


-or-


 

Live Flight TrackerFlight Track Log ✈ N745VJ ✈ 30-Apr-2013 ✈ KCLT - KALB

Flight Track Log - Related Links

Times and Time Zones

All times are in EDT time to prevent confusion due to time zone crossing. See the N745VJ flight status page for this flight to view local times or setup timezone preferences in your user account.

Time Position Orientation Groundspeed Altitude Reporting Facility
EDT Latitude Longitude Course Direction KTS MPH feet Rate Location/Type
12:06PM 35.2264 -80.9394 72° East 158 182 1,400  Level Atlanta Center
12:07PM 35.2678 -80.9225 18° North 191 220 3,200 2,580 Climbing Atlanta Center
12:08PM 35.2783 -80.8511 80° East 239 275 6,200 3,000 Climbing Atlanta Center
12:08PM 35.2797 -80.8256 86° East 230 265 7,000 2,160 Climbing Atlanta Center
12:09PM 35.2455 -80.5342 30° Northeast  Level FlightAware Approximate
12:09PM 35.2908 -80.7667 77° East 281 323 8,400  Level Atlanta Center
12:09PM 35.2919 -80.7308 88° East 278 320 9,500 2,820 Climbing Atlanta Center
12:10PM 35.3358 -80.4572 72° East  Level FlightAware Approximate
12:10PM 35.3028 -80.6694 78° East 290 334 11,300  Level Atlanta Center
12:10PM 35.3081 -80.6311 80° East 296 341 12,000 2,640 Climbing Atlanta Center
12:11PM 35.3730 -80.3163 72° East  Level FlightAware Approximate
12:11PM 35.3233 -80.5158 81° East 339 390 14,800  Level Atlanta Center
12:13PM 35.3803 -80.3178 71° East 359 413 19,100 2,400 Climbing Washington Center
12:14PM 35.4164 -80.1950 70° East 364 419 21,400 2,160 Climbing Washington Center
12:15PM 35.4506 -80.0642 72° East 381 438 23,400 1,980 Climbing Washington Center
12:16PM 35.4867 -79.9361 71° East 381 438 25,300 1,740 Climbing Washington Center
12:17PM 35.5231 -79.7978 72° East 400 460 26,900 840 Climbing Washington Center
12:18PM 35.5550 -79.6592 74° East 413 475 27,000 120 Climbing Washington Center
12:19PM 35.5928 -79.5206 71° East 423 487 27,200 840 Climbing Washington Center
12:20PM 35.6328 -79.3844 70° East 423 487 28,700 840 Climbing Washington Center
12:21PM 35.6892 -79.2492 63° Northeast 423 487 29,000 120 Climbing Washington Center
12:22PM 35.7433 -79.1133 64° Northeast 434 499 29,000 360 Level Washington Center
12:23PM 35.7994 -78.9775 63° Northeast 439 505 29,800 1,080 Climbing Washington Center
12:24PM 35.8533 -78.8389 64° Northeast 439 505 31,200 1,440 Climbing Washington Center
12:25PM 35.9153 -78.7031 61° Northeast 439 505 32,700 1,500 Climbing Washington Center
12:26PM 35.9814 -78.5669 59° Northeast 450 518 34,200 1,380 Climbing Washington Center
12:27PM 36.0450 -78.4358 59° Northeast 450 518 35,600 1,320 Climbing Washington Center
12:28PM 36.1086 -78.3017 60° Northeast 450 518 37,000 1,140 Climbing Washington Center
12:29PM 36.1742 -78.1678 59° Northeast 450 518 38,000 1,020 Climbing Washington Center
12:30PM 36.2356 -78.0383 60° Northeast 450 518 39,000 480 Climbing Washington Center
12:31PM 36.3006 -77.9039 59° Northeast 450 518 39,000  Level Washington Center
12:32PM 36.3550 -77.7867 60° Northeast 442 509 39,000  Level Washington Center
12:33PM 36.4200 -77.6517 59° Northeast 442 509 39,000  Level Washington Center
12:34PM 36.4786 -77.5164 62° Northeast 437 503 39,000  Level Washington Center
12:35PM 36.5411 -77.3836 60° Northeast 443 510 39,000  Level Washington Center
12:36PM 36.6036 -77.2506 60° Northeast 443 510 39,000  Level Washington Center
12:37PM 36.6681 -77.1144 59° Northeast 443 510 39,000  Level Washington Center
12:38PM 36.7447 -76.9917 52° Northeast 443 510 39,000  Level Washington Center
12:39PM 36.8417 -76.8947 39° Northeast 443 510 39,000  Level Washington Center
12:40PM 36.9447 -76.8028 35° Northeast 443 510 39,000  Level Washington Center
12:41PM 37.0564 -76.7006 36° Northeast 448 516 39,000  Level Washington Center
12:42PM 37.1572 -76.6081 36° Northeast 448 516 39,000  Level Washington Center
12:43PM 37.2581 -76.5181 35° Northeast 453 521 39,000  Level Washington Center
12:44PM 37.3611 -76.4253 36° Northeast 453 521 39,000  Level Washington Center
12:45PM 37.4617 -76.3322 36° Northeast 453 521 39,000  Level Washington Center
12:46PM 37.5603 -76.2389 37° Northeast 453 521 39,000  Level Washington Center
12:47PM 37.6650 -76.1506 34° Northeast 453 521 39,000  Level Washington Center
12:48PM 37.7656 -76.0619 35° Northeast 453 521 39,000  Level Washington Center
12:49PM 37.8639 -75.9625 39° Northeast 446 513 39,000  Level Washington Center
12:50PM 37.9622 -75.8683 37° Northeast 446 513 39,000  Level Washington Center
12:51PM 38.0625 -75.7764 36° Northeast 440 506 39,000  Level Washington Center
12:52PM 38.1522 -75.6922 36° Northeast 440 506 39,000  Level Washington Center
12:53PM 38.2503 -75.5997 37° Northeast 440 506 39,000  Level Washington Center
12:54PM 38.3669 -75.5097 31° Northeast 440 506 39,000  Level Washington Center
12:55PM 38.4836 -75.4564 20° North 434 499 39,000  Level Washington Center
12:56PM 38.5983 -75.4083 18° North 434 499 39,000  Level Washington Center
12:57PM 38.7150 -75.3575 19° North 434 499 39,000  Level Washington Center
12:58PM 38.8317 -75.3092 18° North 434 499 39,000  Level Washington Center
12:59PM 38.9483 -75.2606 18° North 439 505 39,000  Level Washington Center
01:00PM 39.0647 -75.2119 18° North 439 505 39,000 -60 Level Washington Center
01:01PM 39.1792 -75.1631 18° North 439 505 38,900  Descending Washington Center
01:02PM 39.2936 -75.1061 21° North 434 499 39,000  Climbing Washington Center
01:03PM 39.3933 -75.0222 33° Northeast 429 494 39,000  Level Washington Center
01:04PM 39.4908 -74.9247 38° Northeast 431 496 39,000  Level Washington Center
01:05PM 39.5861 -74.8294 38° Northeast 436 502 39,000 -300 Level Washington Center
01:06PM 39.6731 -74.7422 38° Northeast 436 502 38,400 -720 Descending Washington Center
01:06PM 39.7253 -74.6928 36° Northeast 457 526 38,000 -1,020 Descending New York Center
01:07PM 39.8158 -74.6031 37° Northeast 462 532 37,000 -1,020 Descending New York Center
01:08PM 39.9233 -74.4953 38° Northeast 450 518 36,000 -960 Descending New York Center
01:09PM 40.0117 -74.4053 38° Northeast 450 518 35,100 -600 Descending New York Center
01:10PM 40.1128 -74.3047 37° Northeast 450 518 34,800 -780 Descending New York Center
01:11PM 40.2342 -74.2211 28° Northeast 450 518 33,600 -1,020 Descending New York Center
01:13PM 40.3936 -74.1186 26° Northeast 441 507 32,300 -1,020 Descending Boston Center
01:14PM 40.5028 -74.0475 26° Northeast 436 502 31,000 -2,100 Descending Boston Center
01:15PM 40.6142 -73.9819 24° Northeast 430 495 28,200 -2,700 Descending Boston Center
01:16PM 40.7236 -73.9133 25° Northeast 423 487 25,600 -2,100 Descending Boston Center
01:17PM 40.8206 -73.8306 33° Northeast 423 487 24,000 -840 Descending Boston Center
01:18PM 40.9031 -73.7281 43° Northeast 414 476 24,000 -480 Level Boston Center
01:19PM 40.9853 -73.6225 44° Northeast 408 470 23,100 -540 Descending Boston Center
01:20PM 41.0717 -73.5247 40° Northeast 403 464 23,000 -60 Descending Boston Center
01:21PM 41.1539 -73.4242 43° Northeast 395 455 23,000 -180 Level Boston Center
01:22PM 41.2522 -73.3817 18° North 379 436 22,700 -660 Descending Boston Center
01:23PM 41.3583 -73.3997 353° North 360 414 21,700 -1,020 Descending Boston Center
01:24PM 41.4647 -73.4153 354° North 365 420 20,700 -1,320 Descending Boston Center
01:25PM 41.5644 -73.4361 351° North 365 420 19,100 -2,100 Descending Boston Center
01:26PM 41.6747 -73.4544 353° North 365 420 16,600 -2,280 Descending Boston Center
01:27PM 41.7622 -73.4669 354° North 365 420 14,600 -1,560 Descending Boston Center
01:28PM 41.8725 -73.4883 352° North 365 420 13,500 -1,020 Descending Boston Center
01:29PM 41.9597 -73.5039 352° North 356 410 12,600 -1,020 Descending Boston Center
01:30PM 42.0658 -73.5222 353° North 345 397 11,500 -900 Descending Boston Center
01:31PM 42.1494 -73.5211 North 313 360 11,000 -300 Descending Boston Center
01:32PM 42.2286 -73.5111 North 284 327 11,000 -480 Level Boston Center
01:33PM 42.3078 -73.5125 359° North 293 337 10,100 -1,200 Descending Boston Center
01:34PM 42.4014 -73.5450 346° North 280 322 8,400 -1,620 Descending Boston Center
01:35PM 42.4822 -73.5747 345° North 274 315 6,500 -1,560 Descending Boston Center
01:36PM 42.5675 -73.6044 346° North 274 315 5,000 -840 Descending Boston Center
01:37PM 42.6236 -73.6222 347° North 274 315 4,900 -60 Descending Boston Center
01:38PM 42.7003 -73.6519 344° North 274 315 4,900 -300 Level Boston Center
01:39PM 42.7750 -73.6761 347° North 266 306 4,400 -480 Descending Boston Center
01:40PM 42.8353 -73.6972 346° North 230 265 4,000 -240 Descending Boston Center
01:41PM 42.8975 -73.7156 348° North 226 260 4,000 -180 Level Boston Center
01:42PM 42.9556 -73.7478 338° Northwest 227 261 3,700 -420 Descending Boston Center
01:43PM 42.9653 -73.8161 281° West 184 212 3,200 -540 Descending Boston Center